Time,TemperatureF,DewpointF,PressureIn,WindDirection,WindDirectionDegrees,WindSpeedMPH,WindSpeedGustMPH,Humidity,HourlyPrecipIn,Conditions,Clouds,dailyrainin,SoftwareType,DateUTC
2013-02-02 00:00:00,27.9,15.4,30.35,SSE,148,0.0,0.0,59,0.00,CLR,,0.00,WeatherDisplay:10.37,2013-02-02 05:00:00,
2013-02-02 00:05:00,27.9,17.3,30.35,SSE,148,0.0,0.0,64,0.00,CLR,,0.00,WeatherDisplay:10.37,2013-02-02 05:05:00,
2013-02-02 00:10:00,27.9,17.6,30.35,SSE,148,0.0,0.0,65,0.00,CLR,,0.00,WeatherDisplay:10.37,2013-02-02 05:10:00,
2013-02-02 00:15:00,27.8,16.8,30.35,SSE,148,0.0,0.0,63,0.00,CLR,,0.00,WeatherDisplay:10.37,2013-02-02 05:15:00,
2013-02-02 00:20:00,27.8,16.8,30.35,SSE,148,0.0,0.0,63,0.00,CLR,,0.00,WeatherDisplay:10.37,2013-02-02 05:20:00,
2013-02-02 00:25:00,27.6,16.6,30.35,SSE,148,0.0,0.0,63,0.00,CLR,,0.00,WeatherDisplay:10.37,2013-02-02 05:25:00,
2013-02-02 00:30:00,27.6,17.4,30.34,SSE,148,0.0,0.0,65,0.00,CLR,,0.00,WeatherDisplay:10.37,2013-02-02 05:30:00,
2013-02-02 00:35:00,27.6,16.6,30.34,SSE,148,0.0,0.0,63,0.00,CLR,,0.00,WeatherDisplay:10.37,2013-02-02 05:35:00,
2013-02-02 00:40:00,27.5,16.5,30.34,SSE,148,0.0,0.0,63,0.00,CLR,,0.00,WeatherDisplay:10.37,2013-02-02 05:40:00,
2013-02-02 00:45:00,27.5,17.3,30.34,SSE,148,0.0,0.0,65,0.00,CLR,,0.00,WeatherDisplay:10.37,2013-02-02 05:45:00,
2013-02-02 00:50:00,27.5,17.6,30.34,SSE,148,0.0,0.0,66,0.00,CLR,,0.00,WeatherDisplay:10.37,2013-02-02 05:50:00,
2013-02-02 00:55:00,27.5,17.6,30.34,SSE,148,0.0,0.0,66,0.00,CLR,,0.00,WeatherDisplay:10.37,2013-02-02 05:55:00,
2013-02-02 01:00:00,27.3,17.1,30.34,SSE,148,0.0,0.0,65,0.00,CLR,,0.00,WeatherDisplay:10.37,2013-02-02 06:00:00,
2013-02-02 01:05:00,27.3,17.1,30.34,SSE,148,0.0,0.0,65,0.00,CLR,,0.00,WeatherDisplay:10.37,2013-02-02 06:05:00,
2013-02-02 01:10:00,27.2,17.0,30.34,SSE,148,0.0,0.0,65,0.00,CLR,,0.00,WeatherDisplay:10.37,2013-02-02 06:10:00,
2013-02-02 01:15:00,27.2,18.0,30.34,SSE,148,0.0,0.0,68,0.00,CLR,,0.00,WeatherDisplay:10.37,2013-02-02 06:15:00,
2013-02-02 01:20:00,27.2,17.7,30.34,SSE,148,0.0,0.0,67,0.00,CLR,,0.00,WeatherDisplay:10.37,2013-02-02 06:20:00,
2013-02-02 01:25:00,27.2,17.7,30.34,SSE,148,0.0,0.0,67,0.00,CLR,,0.00,WeatherDisplay:10.37,2013-02-02 06:25:00,
2013-02-02 01:30:00,27.0,17.5,30.35,SSE,148,0.0,0.0,67,0.00,CLR,,0.00,WeatherDisplay:10.37,2013-02-02 06:30:00,
2013-02-02 01:35:00,27.0,17.1,30.35,SSE,148,0.0,0.0,66,0.00,CLR,,0.00,WeatherDisplay:10.37,2013-02-02 06:35:00,
2013-02-02 01:40:00,26.9,17.0,30.35,SSE,148,0.0,0.0,66,0.00,CLR,,0.00,WeatherDisplay:10.37,2013-02-02 06:40:00,
2013-02-02 01:45:00,26.9,17.7,30.34,SSE,148,0.0,0.0,68,0.00,CLR,,0.00,WeatherDisplay:10.37,2013-02-02 06:45:00,
2013-02-02 01:50:00,26.9,17.7,30.34,SSE,148,0.0,0.0,68,0.00,CLR,,0.00,WeatherDisplay:10.37,2013-02-02 06:50:00,
2013-02-02 01:55:00,26.9,18.1,30.34,SSE,148,0.0,0.0,69,0.00,CLR,,0.00,WeatherDisplay:10.37,2013-02-02 06:55:00,
2013-02-02 02:00:00,26.9,18.4,30.34,SSE,148,0.0,0.0,70,0.00,CLR,,0.00,WeatherDisplay:10.37,2013-02-02 07:00:00,
2013-02-02 02:05:00,26.9,19.1,30.34,SSE,148,0.0,0.0,72,0.00,CLR,,0.00,WeatherDisplay:10.37,2013-02-02 07:05:00,
2013-02-02 02:10:00,26.9,18.7,30.34,SSE,148,0.0,0.0,71,0.00,CLR,,0.00,WeatherDisplay:10.37,2013-02-02 07:10:00,
2013-02-02 02:15:00,26.9,18.7,30.33,SSE,148,0.0,0.0,71,0.00,CLR,,0.00,WeatherDisplay:10.37,2013-02-02 07:15:00,
2013-02-02 02:20:00,26.9,19.1,30.33,SSE,148,0.0,0.0,72,0.00,CLR,,0.00,WeatherDisplay:10.37,2013-02-02 07:20:00,
2013-02-02 02:25:00,26.7,19.2,30.33,SSE,148,0.0,0.0,73,0.00,CLR,,0.00,WeatherDisplay:10.37,2013-02-02 07:25:00,
2013-02-02 02:30:00,26.7,18.9,30.33,SSE,148,0.0,0.0,72,0.00,CLR,,0.00,WeatherDisplay:10.37,2013-02-02 07:30:00,
2013-02-02 02:35:00,26.6,18.5,30.33,SSE,148,0.0,0.0,71,0.00,CLR,,0.00,WeatherDisplay:10.37,2013-02-02 07:35:00,
2013-02-02 02:40:00,26.6,18.5,30.33,SSE,148,0.0,0.0,71,0.00,CLR,,0.00,WeatherDisplay:10.37,2013-02-02 07:40:00,
2013-02-02 02:45:00,26.6,18.5,30.33,SSE,148,0.0,0.0,71,0.00,CLR,,0.00,WeatherDisplay:10.37,2013-02-02 07:45:00,
2013-02-02 02:50:00,26.4,18.6,30.33,SSE,148,0.0,0.0,72,0.00,CLR,,0.00,WeatherDisplay:10.37,2013-02-02 07:50:00,
2013-02-02 02:55:00,26.4,18.9,30.33,SSE,148,0.0,0.0,73,0.00,CLR,,0.00,WeatherDisplay:10.37,2013-02-02 07:55:00,
2013-02-02 03:00:00,26.4,18.9,30.34,SSE,148,0.0,0.0,73,0.00,CLR,,0.00,WeatherDisplay:10.37,2013-02-02 08:00:00,
2013-02-02 03:05:00,26.3,18.5,30.34,SSE,148,0.0,0.0,72,0.00,CLR,,0.00,WeatherDisplay:10.37,2013-02-02 08:05:00,
2013-02-02 03:10:00,26.3,18.5,30.34,SSE,148,0.0,0.0,72,0.00,CLR,,0.00,WeatherDisplay:10.37,2013-02-02 08:10:00,
2013-02-02 03:15:00,26.1,18.3,30.33,SSE,148,0.0,0.0,72,0.00,CLR,,0.00,WeatherDisplay:10.37,2013-02-02 08:15:00,
2013-02-02 03:20:00,26.1,18.3,30.33,SSE,148,0.0,0.0,72,0.00,CLR,,0.00,WeatherDisplay:10.37,2013-02-02 08:20:00,
2013-02-02 03:25:00,26.1,18.3,30.33,SSE,148,0.0,0.0,72,0.00,CLR,,0.00,WeatherDisplay:10.37,2013-02-02 08:25:00,
2013-02-02 03:30:00,26.0,18.2,30.33,SSE,148,0.0,0.0,72,0.00,CLR,,0.00,WeatherDisplay:10.37,2013-02-02 08:30:00,
2013-02-02 03:35:00,26.0,18.2,30.33,SSE,148,0.0,0.0,72,0.00,CLR,,0.00,WeatherDisplay:10.37,2013-02-02 08:35:00,
2013-02-02 03:40:00,26.0,18.5,30.33,SSE,148,0.0,0.0,73,0.00,CLR,,0.00,WeatherDisplay:10.37,2013-02-02 08:40:00,
2013-02-02 03:45:00,26.0,18.2,30.33,SSE,148,0.0,0.0,72,0.00,CLR,,0.00,WeatherDisplay:10.37,2013-02-02 08:45:00,
2013-02-02 03:50:00,26.0,18.5,30.33,SSE,148,0.0,0.0,73,0.00,CLR,,0.00,WeatherDisplay:10.37,2013-02-02 08:50:00,
2013-02-02 03:55:00,26.0,18.8,30.33,SSE,148,0.0,0.0,74,0.00,CLR,,0.00,WeatherDisplay:10.37,2013-02-02 08:55:00,
2013-02-02 04:00:00,26.0,18.8,30.32,SSE,148,0.0,0.0,74,0.00,CLR,,0.00,WeatherDisplay:10.37,2013-02-02 09:00:00,
2013-02-02 04:05:00,25.8,18.3,30.32,SSE,148,0.0,0.0,73,0.00,CLR,,0.00,WeatherDisplay:10.37,2013-02-02 09:05:00,
2013-02-02 04:10:00,25.8,18.7,30.32,SSE,148,0.0,0.0,74,0.00,CLR,,0.00,WeatherDisplay:10.37,2013-02-02 09:10:00,
2013-02-02 04:15:00,25.7,18.6,30.33,SSE,148,0.0,0.0,74,0.00,CLR,,0.00,WeatherDisplay:10.37,2013-02-02 09:15:00,
2013-02-02 04:20:00,25.7,19.2,30.33,SSE,148,0.0,0.0,76,0.00,CLR,,0.00,WeatherDisplay:10.37,2013-02-02 09:20:00,
2013-02-02 04:25:00,25.7,18.9,30.33,SSE,148,0.0,0.0,75,0.00,CLR,,0.00,WeatherDisplay:10.37,2013-02-02 09:25:00,
2013-02-02 04:30:00,25.6,18.8,30.33,SSE,148,0.0,0.0,75,0.00,CLR,,0.00,WeatherDisplay:10.37,2013-02-02 09:30:00,
2013-02-02 04:35:00,25.4,18.6,30.33,SSE,148,0.0,0.0,75,0.00,CLR,,0.00,WeatherDisplay:10.37,2013-02-02 09:35:00,
2013-02-02 04:40:00,25.4,18.3,30.33,SSE,148,0.0,0.0,74,0.00,CLR,,0.00,WeatherDisplay:10.37,2013-02-02 09:40:00,
2013-02-02 04:45:00,25.3,18.2,30.33,SSE,148,0.0,0.0,74,0.00,CLR,,0.00,WeatherDisplay:10.37,2013-02-02 09:45:00,
2013-02-02 04:50:00,25.3,18.5,30.33,SSE,148,0.0,0.0,75,0.00,CLR,,0.00,WeatherDisplay:10.37,2013-02-02 09:50:00,
2013-02-02 04:55:00,25.3,18.5,30.33,SSE,148,0.0,0.0,75,0.00,CLR,,0.00,WeatherDisplay:10.37,2013-02-02 09:55:00,
2013-02-02 05:00:00,25.3,18.8,30.33,SSE,148,0.0,0.0,76,0.00,CLR,,0.00,WeatherDisplay:10.37,2013-02-02 10:00:00,
2013-02-02 05:05:00,25.1,18.3,30.33,SSE,148,0.0,0.0,75,0.00,CLR,,0.00,WeatherDisplay:10.37,2013-02-02 10:05:00,
2013-02-02 05:10:00,25.1,18.3,30.33,SSE,148,0.0,0.0,75,0.00,CLR,,0.00,WeatherDisplay:10.37,2013-02-02 10:10:00,
2013-02-02 05:15:00,25.1,18.0,30.32,SSE,148,0.0,0.0,74,0.00,CLR,,0.00,WeatherDisplay:10.37,2013-02-02 10:15:00,
2013-02-02 05:20:00,25.1,18.3,30.32,SSE,148,0.0,0.0,75,0.00,CLR,,0.00,WeatherDisplay:10.37,2013-02-02 10:20:00,
2013-02-02 05:25:00,25.0,18.5,30.32,SSE,148,0.0,0.0,76,0.00,CLR,,0.00,WeatherDisplay:10.37,2013-02-02 10:25:00,
2013-02-02 05:30:00,25.0,18.5,30.32,SSE,148,0.0,0.0,76,0.00,CLR,,0.00,WeatherDisplay:10.37,2013-02-02 10:30:00,
2013-02-02 05:35:00,25.0,18.5,30.32,SSE,148,0.0,0.0,76,0.00,CLR,,0.00,WeatherDisplay:10.37,2013-02-02 10:35:00,
2013-02-02 05:40:00,25.0,18.8,30.32,SSE,148,0.0,0.0,77,0.00,CLR,,0.00,WeatherDisplay:10.37,2013-02-02 10:40:00,
2013-02-02 05:45:00,25.0,18.8,30.32,SSE,148,0.0,0.0,77,0.00,CLR,,0.00,WeatherDisplay:10.37,2013-02-02 10:45:00,
2013-02-02 05:50:00,24.8,18.6,30.32,SSE,148,0.0,0.0,77,0.00,CLR,,0.00,WeatherDisplay:10.37,2013-02-02 10:50:00,
2013-02-02 05:55:00,24.8,18.6,30.32,SSE,148,0.0,0.0,77,0.00,CLR,,0.00,WeatherDisplay:10.37,2013-02-02 10:55:00,
2013-02-02 06:00:00,24.8,18.6,30.32,SSE,148,0.0,0.0,77,0.00,CLR,,0.00,WeatherDisplay:10.37,2013-02-02 11:00:00,
2013-02-02 06:05:00,24.7,18.5,30.32,SSE,148,0.0,0.0,77,0.00,CLR,,0.00,WeatherDisplay:10.37,2013-02-02 11:05:00,
2013-02-02 06:10:00,24.7,18.5,30.32,SSE,148,0.0,0.0,77,0.00,CLR,,0.00,WeatherDisplay:10.37,2013-02-02 11:10:00,
2013-02-02 06:15:00,24.7,18.5,30.32,SSE,148,0.0,0.0,77,0.00,CLR,,0.00,WeatherDisplay:10.37,2013-02-02 11:15:00,
2013-02-02 06:20:00,24.7,18.8,30.32,SSE,148,0.0,0.0,78,0.00,CLR,,0.00,WeatherDisplay:10.37,2013-02-02 11:20:00,
2013-02-02 06:25:00,24.7,18.8,30.32,SSE,148,0.0,0.0,78,0.00,CLR,,0.00,WeatherDisplay:10.37,2013-02-02 11:25:00,
2013-02-02 06:30:00,24.5,18.6,30.32,SSE,148,0.0,0.0,78,0.00,CLR,,0.00,WeatherDisplay:10.37,2013-02-02 11:30:00,
2013-02-02 06:35:00,24.5,18.6,30.32,SSE,148,0.0,0.0,78,0.00,CLR,,0.00,WeatherDisplay:10.37,2013-02-02 11:35:00,
2013-02-02 06:40:00,24.4,18.5,30.32,SSE,148,0.0,0.0,78,0.00,CLR,,0.00,WeatherDisplay:10.37,2013-02-02 11:40:00,
2013-02-02 06:45:00,24.4,18.5,30.33,SSE,148,0.0,0.0,78,0.00,CLR,,0.00,WeatherDisplay:10.37,2013-02-02 11:45:00,
2013-02-02 06:50:00,24.4,18.8,30.33,SSE,148,0.0,0.0,79,0.00,CLR,,0.00,WeatherDisplay:10.37,2013-02-02 11:50:00,
2013-02-02 06:55:00,24.4,18.8,30.33,SSE,148,0.0,0.0,79,0.00,CLR,,0.00,WeatherDisplay:10.37,2013-02-02 11:55:00,
2013-02-02 07:00:00,24.4,18.8,30.33,SSE,148,0.0,0.0,79,0.00,CLR,,0.00,WeatherDisplay:10.37,2013-02-02 12:00:00,
2013-02-02 07:05:00,24.2,18.6,30.33,SSE,148,0.0,0.0,79,0.00,CLR,,0.00,WeatherDisplay:10.37,2013-02-02 12:05:00,
2013-02-02 07:10:00,24.2,18.9,30.33,SSE,148,0.0,0.0,80,0.00,CLR,,0.00,WeatherDisplay:10.37,2013-02-02 12:10:00,
2013-02-02 07:15:00,24.2,18.9,30.33,SSE,148,0.0,0.0,80,0.00,CLR,,0.00,WeatherDisplay:10.37,2013-02-02 12:15:00,
2013-02-02 07:20:00,24.2,18.9,30.33,SSE,148,0.0,0.0,80,0.00,CLR,,0.00,WeatherDisplay:10.37,2013-02-02 12:20:00,
2013-02-02 07:25:00,24.2,18.9,30.33,SSE,148,0.0,0.0,80,0.00,CLR,,0.00,WeatherDisplay:10.37,2013-02-02 12:25:00,
2013-02-02 07:30:00,24.1,18.8,30.34,SSE,148,0.0,0.0,80,0.00,CLR,,0.00,WeatherDisplay:10.37,2013-02-02 12:30:00,
2013-02-02 07:35:00,24.1,19.1,30.34,SSE,153,0.0,0.0,81,0.00,CLR,,0.00,WeatherDisplay:10.37,2013-02-02 12:35:00,
2013-02-02 07:40:00,24.1,19.1,30.34,NNW,348,0.0,0.0,81,0.00,CLR,,0.00,WeatherDisplay:10.37,2013-02-02 12:40:00,
2013-02-02 07:45:00,24.1,19.1,30.34,NNW,348,0.0,0.0,81,0.00,CLR,,0.00,WeatherDisplay:10.37,2013-02-02 12:45:00,
2013-02-02 07:50:00,24.1,19.1,30.34,NNW,348,0.0,0.0,81,0.00,CLR,,0.00,WeatherDisplay:10.37,2013-02-02 12:50:00,
2013-02-02 07:55:00,24.1,19.1,30.34,NNW,348,0.0,0.0,81,0.00,CLR,,0.00,WeatherDisplay:10.37,2013-02-02 12:55:00,
2013-02-02 08:00:00,24.1,19.1,30.34,NNW,348,0.0,0.0,81,0.00,CLR,,0.00,WeatherDisplay:10.37,2013-02-02 13:00:00,
2013-02-02 08:05:00,24.2,19.2,30.34,NNW,348,0.0,0.0,81,0.00,CLR,,0.00,WeatherDisplay:10.37,2013-02-02 13:05:00,
2013-02-02 08:10:00,24.2,19.5,30.34,NNW,348,0.0,0.0,82,0.00,CLR,,0.00,WeatherDisplay:10.37,2013-02-02 13:10:00,
2013-02-02 08:15:00,24.2,19.5,30.34,NNW,348,0.0,0.0,82,0.00,CLR,,0.00,WeatherDisplay:10.37,2013-02-02 13:15:00,
2013-02-02 08:20:00,24.2,19.5,30.34,NNW,348,0.0,0.0,82,0.00,CLR,,0.00,WeatherDisplay:10.37,2013-02-02 13:20:00,
2013-02-02 08:25:00,24.4,19.7,30.34,North,349,0.0,0.0,82,0.00,CLR,,0.00,WeatherDisplay:10.37,2013-02-02 13:25:00,
2013-02-02 08:30:00,24.4,19.7,30.34,North,349,0.0,0.0,82,0.00,CLR,,0.00,WeatherDisplay:10.37,2013-02-02 13:30:00,
2013-02-02 08:35:00,24.5,20.1,30.34,North,349,0.0,0.0,83,0.00,CLR,,0.00,WeatherDisplay:10.37,2013-02-02 13:35:00,
2013-02-02 08:40:00,24.7,20.6,30.34,North,349,0.0,0.0,84,0.00,CLR,,0.00,WeatherDisplay:10.37,2013-02-02 13:40:00,
2013-02-02 08:45:00,24.8,20.7,30.34,North,349,0.0,0.0,84,0.00,CLR,,0.00,WeatherDisplay:10.37,2013-02-02 13:45:00,
2013-02-02 08:50:00,25.1,20.9,30.34,North,349,0.0,0.0,84,0.00,CLR,,0.00,WeatherDisplay:10.37,2013-02-02 13:50:00,
2013-02-02 08:55:00,25.3,21.4,30.34,North,349,0.0,0.0,85,0.00,CLR,,0.00,WeatherDisplay:10.37,2013-02-02 13:55:00,
2013-02-02 09:00:00,25.4,21.5,30.34,North,355,0.0,0.0,85,0.00,CLR,,0.00,WeatherDisplay:10.37,2013-02-02 14:00:00,
2013-02-02 09:05:00,25.6,21.7,30.34,East,82,0.0,0.0,85,0.00,CLR,,0.00,WeatherDisplay:10.37,2013-02-02 14:05:00,
2013-02-02 09:10:00,25.8,21.6,30.34,East,82,0.0,0.0,84,0.00,CLR,,0.00,WeatherDisplay:10.37,2013-02-02 14:10:00,
2013-02-02 09:15:00,26.1,21.6,30.32,East,82,0.0,0.0,83,0.00,CLR,,0.00,WeatherDisplay:10.37,2013-02-02 14:15:00,
2013-02-02 09:20:00,26.3,20.1,30.32,East,82,0.0,0.0,77,0.00,CLR,,0.00,WeatherDisplay:10.37,2013-02-02 14:20:00,
2013-02-02 09:25:00,26.6,19.4,30.32,East,82,0.0,0.0,74,0.00,CLR,,0.00,WeatherDisplay:10.37,2013-02-02 14:25:00,
2013-02-02 09:30:00,27.0,19.2,30.33,North,5,0.0,0.2,72,0.00,CLR,,0.00,WeatherDisplay:10.37,2013-02-02 14:30:00,
2013-02-02 09:35:00,27.5,18.7,30.33,SE,130,1.2,1.2,69,0.00,CLR,,0.00,WeatherDisplay:10.37,2013-02-02 14:35:00,
2013-02-02 09:40:00,28.1,18.5,30.33,SE,130,0.0,0.0,67,0.00,CLR,,0.00,WeatherDisplay:10.37,2013-02-02 14:40:00,
2013-02-02 09:45:00,28.7,17.7,30.32,SE,130,0.0,0.0,63,0.00,CLR,,0.00,WeatherDisplay:10.37,2013-02-02 14:45:00,
2013-02-02 09:50:00,29.3,16.3,30.32,SE,130,0.0,0.0,58,0.00,CLR,,0.00,WeatherDisplay:10.37,2013-02-02 14:50:00,
2013-02-02 09:55:00,29.8,16.0,30.32,SE,130,0.0,0.0,56,0.00,CLR,,0.00,WeatherDisplay:10.37,2013-02-02 14:55:00,
2013-02-02 10:00:00,30.6,15.5,30.33,SE,130,0.0,0.0,53,0.00,CLR,,0.00,WeatherDisplay:10.37,2013-02-02 15:00:00,
2013-02-02 10:05:00,31.3,14.8,30.33,SE,130,0.0,0.0,50,0.00,CLR,,0.00,WeatherDisplay:10.37,2013-02-02 15:05:00,
2013-02-02 10:10:00,32.1,13.1,30.33,WSW,250,0.0,0.0,45,0.00,CLR,,0.00,WeatherDisplay:10.37,2013-02-02 15:10:00,
2013-02-02 10:15:00,32.8,14.8,30.32,WSW,250,0.0,0.0,47,0.00,CLR,,0.00,WeatherDisplay:10.37,2013-02-02 15:15:00,
2013-02-02 10:20:00,33.4,13.8,30.32,South,169,0.0,0.2,44,0.00,CLR,,0.00,WeatherDisplay:10.37,2013-02-02 15:20:00,
2013-02-02 10:25:00,34.1,13.4,30.32,ENE,73,1.2,0.0,42,0.00,CLR,,0.00,WeatherDisplay:10.37,2013-02-02 15:25:00,
2013-02-02 10:30:00,35.0,14.7,30.32,ENE,73,0.0,0.0,43,0.00,CLR,,0.00,WeatherDisplay:10.37,2013-02-02 15:30:00,
2013-02-02 10:35:00,35.6,11.9,30.32,East,96,0.0,0.0,37,0.00,CLR,,0.00,WeatherDisplay:10.37,2013-02-02 15:35:00,
2013-02-02 10:40:00,36.3,11.2,30.32,WSW,257,2.3,0.0,35,0.00,CLR,,0.00,WeatherDisplay:10.37,2013-02-02 15:40:00,
2013-02-02 10:45:00,37.0,12.5,30.31,WSW,257,0.0,0.0,36,0.00,CLR,,0.00,WeatherDisplay:10.37,2013-02-02 15:45:00,
2013-02-02 10:50:00,38.0,13.4,30.31,WSW,257,1.2,0.0,36,0.00,CLR,,0.00,WeatherDisplay:10.37,2013-02-02 15:50:00,
2013-02-02 10:55:00,39.2,10.3,30.31,WSW,257,1.0,0.0,30,0.00,CLR,,0.00,WeatherDisplay:10.37,2013-02-02 15:55:00,
2013-02-02 11:00:00,40.1,11.1,30.31,WSW,256,1.2,0.0,30,0.00,CLR,,0.00,WeatherDisplay:10.37,2013-02-02 16:00:00,
2013-02-02 11:05:00,40.6,9.2,30.31,WSW,256,0.0,0.0,27,0.00,CLR,,0.00,WeatherDisplay:10.37,2013-02-02 16:05:00,
2013-02-02 11:10:00,41.3,9.8,30.31,SSW,198,0.0,0.0,27,0.00,CLR,,0.00,WeatherDisplay:10.37,2013-02-02 16:10:00,
2013-02-02 11:15:00,42.2,8.8,30.30,ESE,115,0.0,0.0,25,0.00,CLR,,0.00,WeatherDisplay:10.37,2013-02-02 16:15:00,
2013-02-02 11:20:00,43.2,9.7,30.30,SE,135,2.3,2.3,25,0.00,CLR,,0.00,WeatherDisplay:10.37,2013-02-02 16:20:00,
2013-02-02 11:25:00,44.1,9.5,30.30,SSW,207,3.5,3.5,24,0.00,CLR,,0.00,WeatherDisplay:10.37,2013-02-02 16:25:00,
2013-02-02 11:30:00,44.9,12.0,30.30,SSW,211,2.3,2.3,26,0.00,CLR,,0.00,WeatherDisplay:10.37,2013-02-02 16:30:00,
2013-02-02 11:35:00,45.8,9.0,30.30,West,276,1.2,0.0,22,0.00,CLR,,0.00,WeatherDisplay:10.37,2013-02-02 16:35:00,
2013-02-02 11:40:00,46.7,9.8,30.30,West,273,1.2,0.0,22,0.00,CLR,,0.00,WeatherDisplay:10.37,2013-02-02 16:40:00,
2013-02-02 11:45:00,47.6,8.4,30.29,SSW,205,2.3,2.3,20,0.00,CLR,,0.00,WeatherDisplay:10.37,2013-02-02 16:45:00,
2013-02-02 11:50:00,47.7,8.5,30.29,SE,134,3.5,0.0,20,0.00,CLR,,0.00,WeatherDisplay:10.37,2013-02-02 16:50:00,
2013-02-02 11:55:00,47.9,8.7,30.29,SW,218,3.5,3.5,20,0.00,CLR,,0.00,WeatherDisplay:10.37,2013-02-02 16:55:00,
2013-02-02 12:00:00,48.3,9.0,30.29,NW,309,1.2,0.0,20,0.00,CLR,,0.00,WeatherDisplay:10.37,2013-02-02 17:00:00,
2013-02-02 12:05:00,48.2,12.1,30.29,NNW,338,1.0,0.0,23,0.00,CLR,,0.00,WeatherDisplay:10.37,2013-02-02 17:05:00,
2013-02-02 12:10:00,48.3,13.1,30.29,WNW,294,1.2,1.2,24,0.00,CLR,,0.00,WeatherDisplay:10.37,2013-02-02 17:10:00,
2013-02-02 12:15:00,48.5,9.2,30.29,SE,135,3.5,0.0,20,0.00,CLR,,0.00,WeatherDisplay:10.37,2013-02-02 17:15:00,
2013-02-02 12:20:00,48.9,11.7,30.29,NNW,343,3.5,0.0,22,0.00,CLR,,0.00,WeatherDisplay:10.37,2013-02-02 17:20:00,
2013-02-02 12:25:00,48.6,12.4,30.29,NNE,25,1.2,1.2,23,0.00,CLR,,0.00,WeatherDisplay:10.37,2013-02-02 17:25:00,
2013-02-02 12:30:00,48.6,11.4,30.28,SSW,203,0.0,0.2,22,0.00,CLR,,0.00,WeatherDisplay:10.37,2013-02-02 17:30:00,
2013-02-02 12:35:00,49.2,12.9,30.28,SSW,196,2.3,2.3,23,0.00,CLR,,0.00,WeatherDisplay:10.37,2013-02-02 17:35:00,
2013-02-02 12:40:00,50.2,11.7,30.28,SSW,196,2.3,2.3,21,0.00,CLR,,0.00,WeatherDisplay:10.37,2013-02-02 17:40:00,
2013-02-02 12:45:00,50.8,13.3,30.27,SSE,165,3.5,3.5,22,0.00,CLR,,0.00,WeatherDisplay:10.37,2013-02-02 17:45:00,
2013-02-02 12:50:00,51.3,12.6,30.27,West,259,1.2,0.0,21,0.00,CLR,,0.00,WeatherDisplay:10.37,2013-02-02 17:50:00,
2013-02-02 12:55:00,51.6,16.9,30.27,South,184,0.0,0.4,25,0.00,CLR,,0.00,WeatherDisplay:10.37,2013-02-02 17:55:00,
2013-02-02 13:00:00,52.3,13.5,30.25,SW,219,1.2,0.0,21,0.00,CLR,,0.00,WeatherDisplay:10.37,2013-02-02 18:00:00,
2013-02-02 13:05:00,52.6,13.7,30.25,SSW,211,4.0,4.0,21,0.00,CLR,,0.00,WeatherDisplay:10.37,2013-02-02 18:05:00,
2013-02-02 13:10:00,52.5,13.6,30.25,ESE,121,1.2,0.0,21,0.00,CLR,,0.00,WeatherDisplay:10.37,2013-02-02 18:10:00,
2013-02-02 13:15:00,52.3,12.4,30.24,NE,39,3.5,3.5,20,0.00,CLR,,0.00,WeatherDisplay:10.37,2013-02-02 18:15:00,
2013-02-02 13:20:00,51.7,14.0,30.24,East,84,0.0,0.0,22,0.00,CLR,,0.00,WeatherDisplay:10.37,2013-02-02 18:20:00,
2013-02-02 13:25:00,51.6,13.9,30.24,SSW,202,2.3,2.3,22,0.00,CLR,,0.00,WeatherDisplay:10.37,2013-02-02 18:25:00,
2013-02-02 13:30:00,51.7,15.0,30.22,SSW,202,2.3,2.3,23,0.00,CLR,,0.00,WeatherDisplay:10.37,2013-02-02 18:30:00,
2013-02-02 13:35:00,52.5,15.7,30.22,SSW,202,1.2,0.0,23,0.00,CLR,,0.00,WeatherDisplay:10.37,2013-02-02 18:35:00,
2013-02-02 13:40:00,53.1,14.1,30.22,NNE,28,1.2,0.0,21,0.00,CLR,,0.00,WeatherDisplay:10.37,2013-02-02 18:40:00,
2013-02-02 13:45:00,53.5,15.5,30.20,WSW,258,3.5,3.5,22,0.00,CLR,,0.00,WeatherDisplay:10.37,2013-02-02 18:45:00,
2013-02-02 13:50:00,53.6,15.6,30.20,WNW,293,3.5,3.5,22,0.00,CLR,,0.00,WeatherDisplay:10.37,2013-02-02 18:50:00,
2013-02-02 13:55:00,53.5,15.5,30.20,SW,221,1.2,0.0,22,0.00,CLR,,0.00,WeatherDisplay:10.37,2013-02-02 18:55:00,
2013-02-02 14:00:00,53.5,14.5,30.19,SW,221,3.0,3.0,21,0.00,CLR,,0.00,WeatherDisplay:10.37,2013-02-02 19:00:00,
2013-02-02 14:05:00,53.6,14.5,30.19,WNW,286,0.0,0.0,21,0.00,CLR,,0.00,WeatherDisplay:10.37,2013-02-02 19:05:00,
2013-02-02 14:10:00,53.8,15.8,30.19,SSE,161,0.0,0.0,22,0.00,CLR,,0.00,WeatherDisplay:10.37,2013-02-02 19:10:00,
2013-02-02 14:15:00,53.8,15.8,30.19,SSE,161,0.0,0.0,22,0.00,CLR,,0.00,WeatherDisplay:10.37,2013-02-02 19:15:00,
2013-02-02 14:20:00,53.8,15.8,30.19,SSE,161,0.0,0.0,22,0.00,CLR,,0.00,WeatherDisplay:10.37,2013-02-02 19:20:00,
2013-02-02 14:25:00,53.8,15.8,30.19,SSE,161,0.0,0.0,22,0.00,CLR,,0.00,WeatherDisplay:10.37,2013-02-02 19:25:00,
2013-02-02 14:30:00,53.8,15.8,30.19,SSE,161,0.0,0.0,22,0.00,CLR,,0.00,WeatherDisplay:10.37,2013-02-02 19:30:00,
2013-02-02 14:35:00,53.8,15.8,30.19,SSE,161,0.0,0.0,22,0.00,CLR,,0.00,WeatherDisplay:10.37,2013-02-02 19:35:00,
2013-02-02 14:40:00,53.8,15.8,30.19,SSE,161,0.0,0.0,22,0.00,CLR,,0.00,WeatherDisplay:10.37,2013-02-02 19:40:00,
2013-02-02 14:45:00,53.8,15.8,30.19,SSE,161,0.0,0.0,22,0.00,CLR,,0.00,WeatherDisplay:10.37,2013-02-02 19:45:00,
2013-02-02 14:50:00,53.8,15.8,30.19,SSE,161,0.0,0.0,22,0.00,CLR,,0.00,WeatherDisplay:10.37,2013-02-02 19:50:00,
2013-02-02 14:55:00,53.8,15.8,30.19,SSE,161,0.0,0.0,22,0.00,CLR,,0.00,WeatherDisplay:10.37,2013-02-02 19:55:00,
2013-02-02 15:00:00,53.8,15.8,30.19,SSE,161,0.0,0.0,22,0.00,CLR,,0.00,WeatherDisplay:10.37,2013-02-02 20:00:00,
2013-02-02 15:05:00,53.8,15.8,30.19,SSE,161,0.0,0.0,22,0.00,CLR,,0.00,WeatherDisplay:10.37,2013-02-02 20:05:00,
2013-02-02 15:10:00,53.8,15.8,30.19,SSE,161,0.0,0.0,22,0.00,CLR,,0.00,WeatherDisplay:10.37,2013-02-02 20:10:00,
2013-02-02 15:15:00,53.8,15.8,30.19,SSE,161,0.0,0.0,22,0.00,CLR,,0.00,WeatherDisplay:10.37,2013-02-02 20:15:00,
2013-02-02 15:20:00,53.8,15.8,30.19,SSE,161,0.0,0.0,22,0.00,CLR,,0.00,WeatherDisplay:10.37,2013-02-02 20:20:00,
2013-02-02 15:25:00,53.8,15.8,30.19,SSE,161,0.0,0.0,22,0.00,CLR,,0.00,WeatherDisplay:10.37,2013-02-02 20:25:00,
2013-02-02 15:30:00,53.8,15.8,30.19,SSE,161,0.0,0.0,22,0.00,CLR,,0.00,WeatherDisplay:10.37,2013-02-02 20:30:00,
2013-02-02 15:35:00,53.8,15.8,30.19,SSE,161,0.0,0.0,22,0.00,CLR,,0.00,WeatherDisplay:10.37,2013-02-02 20:35:00,
2013-02-02 15:40:00,53.8,15.8,30.19,SSE,161,0.0,0.0,22,0.00,CLR,,0.00,WeatherDisplay:10.37,2013-02-02 20:40:00,
2013-02-02 15:45:00,53.8,15.8,30.19,SSE,161,0.0,0.0,22,0.00,CLR,,0.00,WeatherDisplay:10.37,2013-02-02 20:45:00,
2013-02-02 15:50:00,53.8,15.8,30.19,SSE,161,0.0,0.0,22,0.00,CLR,,0.00,WeatherDisplay:10.37,2013-02-02 20:50:00,
2013-02-02 15:55:00,53.8,15.8,30.19,SSE,161,0.0,0.0,22,0.00,CLR,,0.00,WeatherDisplay:10.37,2013-02-02 20:55:00,
2013-02-02 16:00:00,53.8,15.8,30.19,SSE,161,0.0,0.0,22,0.00,CLR,,0.00,WeatherDisplay:10.37,2013-02-02 21:00:00,
2013-02-02 16:05:00,53.8,15.8,30.19,SSE,161,0.0,0.0,22,0.00,CLR,,0.00,WeatherDisplay:10.37,2013-02-02 21:05:00,
2013-02-02 16:10:00,53.8,15.8,30.19,SSE,161,0.0,0.0,22,0.00,CLR,,0.00,WeatherDisplay:10.37,2013-02-02 21:10:00,
2013-02-02 16:15:00,53.8,15.8,30.19,SSE,161,0.0,0.0,22,0.00,CLR,,0.00,WeatherDisplay:10.37,2013-02-02 21:15:00,
2013-02-02 16:20:00,53.8,15.8,30.19,SSE,161,0.0,0.0,22,0.00,CLR,,0.00,WeatherDisplay:10.37,2013-02-02 21:20:00,
2013-02-02 16:25:00,53.8,15.8,30.19,SSE,161,0.0,0.0,22,0.00,CLR,,0.00,WeatherDisplay:10.37,2013-02-02 21:25:00,
2013-02-02 16:30:00,51.9,22.9,30.12,NNE,17,0.0,0.0,32,0.00,CLR,,0.00,WeatherDisplay:10.37,2013-02-02 21:30:00,
2013-02-02 16:35:00,51.7,24.9,30.12,NNE,17,0.0,0.0,35,0.00,CLR,,0.00,WeatherDisplay:10.37,2013-02-02 21:35:00,
2013-02-02 16:40:00,51.7,21.2,30.12,NNE,17,0.0,0.0,30,0.00,CLR,,0.00,WeatherDisplay:10.37,2013-02-02 21:40:00,
2013-02-02 16:45:00,51.6,20.3,30.11,West,270,1.2,1.2,29,0.00,CLR,,0.00,WeatherDisplay:10.37,2013-02-02 21:45:00,
2013-02-02 16:50:00,51.4,20.2,30.11,West,270,0.0,0.0,29,0.00,CLR,,0.00,WeatherDisplay:10.37,2013-02-02 21:50:00,
2013-02-02 16:55:00,51.4,21.0,30.11,West,270,0.0,0.0,30,0.00,CLR,,0.00,WeatherDisplay:10.37,2013-02-02 21:55:00,
2013-02-02 17:00:00,51.6,20.3,30.11,WSW,242,2.3,0.0,29,0.00,CLR,,0.00,WeatherDisplay:10.37,2013-02-02 22:00:00,
2013-02-02 17:05:00,51.6,21.9,30.11,WSW,241,0.0,0.0,31,0.00,CLR,,0.00,WeatherDisplay:10.37,2013-02-02 22:05:00,
2013-02-02 17:10:00,51.6,21.1,30.11,SW,218,0.0,0.0,30,0.00,CLR,,0.00,WeatherDisplay:10.37,2013-02-02 22:10:00,
2013-02-02 17:15:00,51.4,21.7,30.11,SE,143,0.0,0.0,31,0.00,CLR,,0.00,WeatherDisplay:10.37,2013-02-02 22:15:00,
2013-02-02 17:20:00,51.4,23.9,30.11,SSW,194,0.0,0.0,34,0.00,CLR,,0.00,WeatherDisplay:10.37,2013-02-02 22:20:00,
2013-02-02 17:25:00,51.1,24.4,30.11,NNW,332,0.0,0.0,35,0.00,CLR,,0.00,WeatherDisplay:10.37,2013-02-02 22:25:00,
2013-02-02 17:30:00,51.0,22.9,30.11,West,267,0.0,0.1,33,0.00,CLR,,0.00,WeatherDisplay:10.37,2013-02-02 22:30:00,
2013-02-02 17:35:00,51.0,25.6,30.11,West,267,0.0,0.0,37,0.00,CLR,,0.00,WeatherDisplay:10.37,2013-02-02 22:35:00,
2013-02-02 17:40:00,50.7,25.3,30.11,West,267,0.0,0.0,37,0.00,CLR,,0.00,WeatherDisplay:10.37,2013-02-02 22:40:00,
2013-02-02 17:45:00,50.5,25.2,30.12,West,267,0.0,0.0,37,0.00,CLR,,0.00,WeatherDisplay:10.37,2013-02-02 22:45:00,
2013-02-02 17:50:00,50.2,24.2,30.12,SSW,194,1.2,1.2,36,0.00,CLR,,0.00,WeatherDisplay:10.37,2013-02-02 22:50:00,
2013-02-02 17:55:00,50.2,27.4,30.12,NNW,329,5.8,5.8,41,0.00,CLR,,0.00,WeatherDisplay:10.37,2013-02-02 22:55:00,
2013-02-02 18:00:00,49.5,33.5,30.16,West,260,6.9,6.9,54,0.00,CLR,,0.00,WeatherDisplay:10.37,2013-02-02 23:00:00,
2013-02-02 18:05:00,48.8,32.9,30.16,SSW,207,3.5,3.5,54,0.00,CLR,,0.00,WeatherDisplay:10.37,2013-02-02 23:05:00,
2013-02-02 18:10:00,48.3,32.9,30.16,WSW,240,4.0,4.0,55,0.00,CLR,,0.00,WeatherDisplay:10.37,2013-02-02 23:10:00,
2013-02-02 18:15:00,48.2,34.5,30.16,SSW,202,3.5,0.0,59,0.00,CLR,,0.00,WeatherDisplay:10.37,2013-02-02 23:15:00,
2013-02-02 18:20:00,47.7,34.9,30.16,WSW,253,2.3,0.0,61,0.00,CLR,,0.00,WeatherDisplay:10.37,2013-02-02 23:20:00,
2013-02-02 18:25:00,47.3,36.9,30.16,South,171,3.5,3.5,67,0.00,CLR,,0.00,WeatherDisplay:10.37,2013-02-02 23:25:00,
2013-02-02 18:30:00,46.4,37.9,30.17,SSW,194,2.3,2.3,72,0.01,RA,,0.01,WeatherDisplay:10.37,2013-02-02 23:30:00,
2013-02-02 18:35:00,45.4,38.3,30.17,West,267,4.0,4.0,76,0.03,RA,,0.03,WeatherDisplay:10.37,2013-02-02 23:35:00,
2013-02-02 18:40:00,44.6,38.8,30.17,SW,222,4.6,4.6,80,0.04,RA,,0.04,WeatherDisplay:10.37,2013-02-02 23:40:00,
2013-02-02 18:45:00,43.8,38.3,30.16,WNW,292,3.5,3.5,81,0.06,RA,,0.06,WeatherDisplay:10.37,2013-02-02 23:45:00,
2013-02-02 18:50:00,43.2,38.4,30.16,SE,145,0.0,0.0,83,0.08,RA,,0.08,WeatherDisplay:10.37,2013-02-02 23:50:00,
2013-02-02 18:55:00,42.8,38.6,30.16,South,176,1.2,0.0,85,0.09,RA,,0.09,WeatherDisplay:10.37,2013-02-02 23:55:00,
2013-02-02 19:00:00,42.6,39.0,30.17,South,176,0.0,0.0,87,0.10,RA,,0.10,WeatherDisplay:10.37,2013-02-03 00:00:00,
2013-02-02 19:05:00,42.3,39.0,30.17,South,176,0.0,0.0,88,0.11,RA,,0.11,WeatherDisplay:10.37,2013-02-03 00:05:00,
2013-02-02 19:10:00,42.2,39.5,30.17,South,176,0.0,0.0,90,0.12,RA,,0.12,WeatherDisplay:10.37,2013-02-03 00:10:00,
2013-02-02 19:15:00,42.2,39.8,30.17,SSW,198,0.0,0.0,91,0.14,RA,,0.14,WeatherDisplay:10.37,2013-02-03 00:15:00,
2013-02-02 19:20:00,42.1,39.9,30.17,WSW,244,0.0,0.0,92,0.15,RA,,0.15,WeatherDisplay:10.37,2013-02-03 00:20:00,
2013-02-02 19:25:00,41.9,39.7,30.17,WSW,244,0.0,0.0,92,0.16,RA,,0.17,WeatherDisplay:10.37,2013-02-03 00:25:00,
2013-02-02 19:30:00,41.9,40.0,30.17,SSW,200,1.2,1.2,93,0.17,RA,,0.18,WeatherDisplay:10.37,2013-02-03 00:30:00,
2013-02-02 19:35:00,41.8,39.9,30.17,SSW,200,0.0,0.0,93,0.16,RA,,0.19,WeatherDisplay:10.37,2013-02-03 00:35:00,
2013-02-02 19:40:00,41.8,40.2,30.17,SSW,200,0.0,0.0,94,0.16,RA,,0.20,WeatherDisplay:10.37,2013-02-03 00:40:00,
2013-02-02 19:45:00,41.8,40.5,30.15,SSE,153,1.2,0.0,95,0.14,RA,,0.20,WeatherDisplay:10.37,2013-02-03 00:45:00,
2013-02-02 19:50:00,41.8,40.5,30.15,SSE,153,0.0,0.0,95,0.12,CLR,,0.20,WeatherDisplay:10.37,2013-02-03 00:50:00,
2013-02-02 19:55:00,41.8,40.7,30.15,SSE,153,0.0,0.0,96,0.11,CLR,,0.20,WeatherDisplay:10.37,2013-02-03 00:55:00,
2013-02-02 20:00:00,41.8,40.7,30.14,SSE,153,0.0,0.0,96,0.10,CLR,,0.20,WeatherDisplay:10.37,2013-02-03 01:00:00,
2013-02-02 20:05:00,41.8,40.7,30.14,SSE,153,0.0,0.0,96,0.09,CLR,,0.20,WeatherDisplay:10.37,2013-02-03 01:05:00,
2013-02-02 20:10:00,41.8,40.7,30.14,SSE,153,0.0,0.0,96,0.08,CLR,,0.20,WeatherDisplay:10.37,2013-02-03 01:10:00,
2013-02-02 20:15:00,41.6,40.8,30.14,WSW,245,0.0,0.0,97,0.06,CLR,,0.20,WeatherDisplay:10.37,2013-02-03 01:15:00,
2013-02-02 20:20:00,41.6,40.8,30.14,WSW,245,0.0,0.0,97,0.05,CLR,,0.20,WeatherDisplay:10.37,2013-02-03 01:20:00,
2013-02-02 20:25:00,41.6,40.8,30.14,WSW,245,0.0,0.0,97,0.04,CLR,,0.20,WeatherDisplay:10.37,2013-02-03 01:25:00,
2013-02-02 20:30:00,41.6,40.8,30.13,WSW,245,0.0,0.0,97,0.02,CLR,,0.20,WeatherDisplay:10.37,2013-02-03 01:30:00,
2013-02-02 20:35:00,41.5,40.7,30.13,WSW,245,0.0,0.0,97,0.01,CLR,,0.20,WeatherDisplay:10.37,2013-02-03 01:35:00,
2013-02-02 20:40:00,41.6,40.8,30.13,WSW,245,0.0,0.0,97,0.00,CLR,,0.20,WeatherDisplay:10.37,2013-02-03 01:40:00,
2013-02-02 20:45:00,41.6,40.8,30.13,WSW,245,0.0,0.0,97,0.00,CLR,,0.20,WeatherDisplay:10.37,2013-02-03 01:45:00,
2013-02-02 20:50:00,41.6,40.8,30.13,WSW,245,0.0,0.0,97,0.00,CLR,,0.20,WeatherDisplay:10.37,2013-02-03 01:50:00,
2013-02-02 20:55:00,41.6,41.1,30.13,WSW,245,0.0,0.0,98,0.00,CLR,,0.20,WeatherDisplay:10.37,2013-02-03 01:55:00,
2013-02-02 21:00:00,41.6,41.1,30.13,WSW,245,0.0,0.0,98,0.00,CLR,,0.20,WeatherDisplay:10.37,2013-02-03 02:00:00,
2013-02-02 21:05:00,41.5,41.0,30.13,WSW,245,0.0,0.0,98,0.00,CLR,,0.20,WeatherDisplay:10.37,2013-02-03 02:05:00,
2013-02-02 21:10:00,41.5,41.0,30.13,WSW,245,0.0,0.0,98,0.00,CLR,,0.20,WeatherDisplay:10.37,2013-02-03 02:10:00,
2013-02-02 21:15:00,41.3,40.8,30.13,WSW,245,0.0,0.0,98,0.00,CLR,,0.20,WeatherDisplay:10.37,2013-02-03 02:15:00,
2013-02-02 21:20:00,41.2,40.4,30.13,WSW,245,0.0,0.0,97,0.00,CLR,,0.20,WeatherDisplay:10.37,2013-02-03 02:20:00,
2013-02-02 21:25:00,41.1,40.6,30.13,WSW,245,0.0,0.0,98,0.00,CLR,,0.20,WeatherDisplay:10.37,2013-02-03 02:25:00,
2013-02-02 21:30:00,40.9,40.1,30.13,WSW,245,0.0,0.0,97,0.00,CLR,,0.20,WeatherDisplay:10.37,2013-02-03 02:30:00,
2013-02-02 21:35:00,40.8,40.0,30.13,WSW,245,0.0,0.0,97,0.00,CLR,,0.20,WeatherDisplay:10.37,2013-02-03 02:35:00,
2013-02-02 21:40:00,40.6,39.8,30.13,WSW,245,0.0,0.0,97,0.00,CLR,,0.20,WeatherDisplay:10.37,2013-02-03 02:40:00,
2013-02-02 21:45:00,40.5,39.7,30.12,WSW,245,0.0,0.0,97,0.00,CLR,,0.20,WeatherDisplay:10.37,2013-02-03 02:45:00,
2013-02-02 21:50:00,40.3,39.5,30.12,WSW,245,0.0,0.0,97,0.00,CLR,,0.20,WeatherDisplay:10.37,2013-02-03 02:50:00,
2013-02-02 21:55:00,40.2,39.4,30.12,WSW,245,0.0,0.0,97,0.00,CLR,,0.20,WeatherDisplay:10.37,2013-02-03 02:55:00,
2013-02-02 22:00:00,40.1,39.3,30.13,WSW,245,0.0,0.0,97,0.00,CLR,,0.20,WeatherDisplay:10.37,2013-02-03 03:00:00,
2013-02-02 22:05:00,39.9,39.1,30.13,WSW,245,0.0,0.0,97,0.00,CLR,,0.20,WeatherDisplay:10.37,2013-02-03 03:05:00,
2013-02-02 22:10:00,39.8,39.0,30.13,WSW,245,0.0,0.0,97,0.00,CLR,,0.20,WeatherDisplay:10.37,2013-02-03 03:10:00,
2013-02-02 22:15:00,39.6,38.8,30.12,WSW,245,0.0,0.0,97,0.00,CLR,,0.20,WeatherDisplay:10.37,2013-02-03 03:15:00,
2013-02-02 22:20:00,39.5,38.7,30.12,WSW,245,0.0,0.0,97,0.00,CLR,,0.20,WeatherDisplay:10.37,2013-02-03 03:20:00,
2013-02-02 22:25:00,39.3,38.5,30.12,WSW,245,0.0,0.0,97,0.00,CLR,,0.20,WeatherDisplay:10.37,2013-02-03 03:25:00,
2013-02-02 22:30:00,39.2,38.4,30.12,WSW,245,0.0,0.0,97,0.00,CLR,,0.20,WeatherDisplay:10.37,2013-02-03 03:30:00,
2013-02-02 22:35:00,39.1,38.3,30.12,WSW,245,0.0,0.0,97,0.00,CLR,,0.20,WeatherDisplay:10.37,2013-02-03 03:35:00,
2013-02-02 22:40:00,38.9,38.1,30.12,WSW,245,0.0,0.0,97,0.00,CLR,,0.20,WeatherDisplay:10.37,2013-02-03 03:40:00,
2013-02-02 22:45:00,38.8,38.0,30.13,WSW,245,0.0,0.0,97,0.00,CLR,,0.20,WeatherDisplay:10.37,2013-02-03 03:45:00,
2013-02-02 22:50:00,38.8,38.3,30.13,WSW,245,0.0,0.0,98,0.00,CLR,,0.20,WeatherDisplay:10.37,2013-02-03 03:50:00,
2013-02-02 22:55:00,38.9,38.4,30.13,WSW,245,0.0,0.0,98,0.00,CLR,,0.20,WeatherDisplay:10.37,2013-02-03 03:55:00,
2013-02-02 23:00:00,39.1,38.6,30.14,WSW,245,0.0,0.0,98,0.00,CLR,,0.20,WeatherDisplay:10.37,2013-02-03 04:00:00,
2013-02-02 23:05:00,39.2,38.9,30.14,WSW,245,0.0,0.0,99,0.00,CLR,,0.20,WeatherDisplay:10.37,2013-02-03 04:05:00,
2013-02-02 23:10:00,39.2,38.9,30.14,WSW,245,0.0,0.0,99,0.00,CLR,,0.20,WeatherDisplay:10.37,2013-02-03 04:10:00,
2013-02-02 23:15:00,39.2,38.9,30.13,WSW,245,0.0,0.0,99,0.00,CLR,,0.20,WeatherDisplay:10.37,2013-02-03 04:15:00,
2013-02-02 23:20:00,39.2,38.9,30.13,WSW,245,0.0,0.0,99,0.00,CLR,,0.20,WeatherDisplay:10.37,2013-02-03 04:20:00,
2013-02-02 23:25:00,39.3,39.0,30.13,WSW,245,0.0,0.0,99,0.00,CLR,,0.20,WeatherDisplay:10.37,2013-02-03 04:25:00,
2013-02-02 23:30:00,39.3,39.0,30.13,WSW,245,0.0,0.0,99,0.00,CLR,,0.20,WeatherDisplay:10.37,2013-02-03 04:30:00,
2013-02-02 23:35:00,39.5,39.2,30.13,WSW,245,0.0,0.0,99,0.00,CLR,,0.20,WeatherDisplay:10.37,2013-02-03 04:35:00,
2013-02-02 23:40:00,39.5,39.2,30.13,WSW,245,0.0,0.0,99,0.00,CLR,,0.20,WeatherDisplay:10.37,2013-02-03 04:40:00,
2013-02-02 23:45:00,39.3,39.0,30.12,WSW,245,0.0,0.0,99,0.00,CLR,,0.20,WeatherDisplay:10.37,2013-02-03 04:45:00,
2013-02-02 23:50:00,39.3,39.0,30.12,WSW,245,0.0,0.0,99,0.00,CLR,,0.20,WeatherDisplay:10.37,2013-02-03 04:50:00,
2013-02-02 23:55:00,39.2,38.9,30.12,WSW,245,0.0,0.0,99,0.00,RA,,0.20,WeatherDisplay:10.37,2013-02-03 04:55:00,